createdAt,value
2023-03-29T00:00:16.894Z,96669.77
2023-03-29T00:03:05.038Z,96668.27
2023-03-29T00:05:36.173Z,96669.89
2023-03-29T00:08:04.738Z,96667.52
2023-03-29T00:10:34.247Z,96666.91
2023-03-29T00:13:03.226Z,96663.88
2023-03-29T00:15:31.395Z,96666.60
2023-03-29T00:17:59.432Z,96663.10
2023-03-29T00:20:28.922Z,96664.66
2023-03-29T00:22:57.067Z,96667.95
2023-03-29T00:25:25.165Z,96666.30
2023-03-29T00:27:53.331Z,96668.39
2023-03-29T00:30:21.285Z,96676.40
2023-03-29T00:32:49.267Z,96672.69
2023-03-29T00:35:17.422Z,96674.27
2023-03-29T00:37:47.165Z,96669.91
2023-03-29T00:40:15.515Z,96676.70
2023-03-29T00:42:46.670Z,96679.60
2023-03-29T00:45:30.479Z,96675.20
2023-03-29T00:48:02.967Z,96676.60
2023-03-29T00:50:37.991Z,96678.20
2023-03-29T00:53:13.116Z,96675.86
2023-03-29T00:55:47.912Z,96677.77
2023-03-29T00:58:21.475Z,96672.58
2023-03-29T01:00:58.043Z,96673.95
2023-03-29T01:03:33.059Z,96666.73
2023-03-29T01:06:06.014Z,96661.18
2023-03-29T01:09:01.200Z,96658.15
2023-03-29T01:11:39.758Z,96658.32
2023-03-29T01:14:18.347Z,96660.02
2023-03-29T01:16:46.713Z,96662.39
2023-03-29T01:19:21.752Z,96657.66
2023-03-29T01:21:56.064Z,96658.84
2023-03-29T01:24:42.081Z,96655.63
2023-03-29T01:27:32.298Z,96652.98
2023-03-29T01:30:08.970Z,96650.14
2023-03-29T01:32:52.097Z,96648.84
2023-03-29T01:35:26.920Z,96646.49
2023-03-29T01:38:08.844Z,96646.14
2023-03-29T01:40:36.933Z,96643.63
2023-03-29T01:43:30.836Z,96646.39
2023-03-29T01:46:15.056Z,96642.55
2023-03-29T01:49:02.195Z,96643.47
2023-03-29T01:51:38.143Z,96646.58
2023-03-29T01:54:21.468Z,96649.69
2023-03-29T01:56:52.275Z,96648.02
2023-03-29T01:59:26.279Z,96645.83
2023-03-29T02:02:00.090Z,96648.34
2023-03-29T02:04:34.715Z,96650.36
2023-03-29T02:07:06.119Z,96647.48
2023-03-29T02:09:37.270Z,96644.26
2023-03-29T02:12:08.011Z,96645.22
2023-03-29T02:14:36.489Z,96640.94
2023-03-29T02:17:16.999Z,96645.98
2023-03-29T02:19:51.600Z,96645.09
2023-03-29T02:22:27.000Z,96649.27
2023-03-29T02:24:59.367Z,96649.25
2023-03-29T02:27:29.644Z,96649.04
2023-03-29T02:29:58.726Z,96650.33
2023-03-29T02:32:35.319Z,96650.38
2023-03-29T02:35:19.109Z,96646.84
2023-03-29T02:37:51.352Z,96647.46
2023-03-29T02:40:21.549Z,96651.33
2023-03-29T02:42:49.969Z,96648.92
2023-03-29T02:45:18.827Z,96651.39
2023-03-29T02:47:51.885Z,96653.37
2023-03-29T02:50:21.112Z,96651.10
2023-03-29T02:52:56.117Z,96649.52
2023-03-29T02:55:26.383Z,96652.96
2023-03-29T02:57:54.328Z,96648.25
2023-03-29T03:00:23.373Z,96654.30
2023-03-29T03:02:52.240Z,96650.35
2023-03-29T03:05:20.887Z,96648.38
2023-03-29T03:07:49.003Z,96646.73
2023-03-29T03:10:17.322Z,96645.60
2023-03-29T03:12:45.374Z,96647.29
2023-03-29T03:15:13.572Z,96647.45
2023-03-29T03:17:41.774Z,96652.15
2023-03-29T03:20:14.361Z,96654.46
2023-03-29T03:22:48.864Z,96660.70
2023-03-29T03:25:19.621Z,96657.76
2023-03-29T03:27:49.765Z,96657.73
2023-03-29T03:30:19.139Z,96658.79
2023-03-29T03:33:05.981Z,96660.39
2023-03-29T03:35:49.250Z,96655.73
2023-03-29T03:38:17.529Z,96656.80
2023-03-29T03:40:54.099Z,96652.41
2023-03-29T03:43:22.803Z,96658.21
2023-03-29T03:45:51.612Z,96663.34
2023-03-29T03:48:25.132Z,96664.71
2023-03-29T03:51:16.229Z,96663.49
2023-03-29T03:53:44.566Z,96664.81
2023-03-29T03:56:13.521Z,96665.65
2023-03-29T03:59:00.290Z,96666.00
2023-03-29T04:01:29.323Z,96663.83
2023-03-29T04:04:03.116Z,96665.20
2023-03-29T04:06:32.624Z,96665.75
2023-03-29T04:09:20.246Z,96663.11
2023-03-29T04:11:56.183Z,96662.37
2023-03-29T04:14:24.265Z,96661.87
2023-03-29T04:17:05.749Z,96660.16
2023-03-29T04:20:12.928Z,96665.10
2023-03-29T04:22:41.985Z,96663.31
2023-03-29T04:25:11.766Z,96659.49
2023-03-29T04:27:51.256Z,96657.90
2023-03-29T04:30:29.391Z,96657.18
2023-03-29T04:33:12.322Z,96655.45
2023-03-29T04:35:42.608Z,96654.67
2023-03-29T04:38:14.346Z,96652.40
2023-03-29T04:40:44.176Z,96650.98
2023-03-29T04:43:18.659Z,96652.61
2023-03-29T04:45:55.252Z,96658.14
2023-03-29T04:48:42.150Z,96656.91
2023-03-29T04:51:11.030Z,96663.27
2023-03-29T04:53:38.955Z,96665.42
2023-03-29T04:56:08.113Z,96664.19
2023-03-29T04:59:01.751Z,96659.54
2023-03-29T05:01:29.834Z,96657.19
2023-03-29T05:03:59.468Z,96659.69
2023-03-29T05:06:36.882Z,96653.22
2023-03-29T05:09:08.979Z,96656.71
2023-03-29T05:11:49.157Z,96656.18
2023-03-29T05:14:17.436Z,96652.94
2023-03-29T05:16:45.645Z,96651.04
2023-03-29T05:19:13.745Z,96646.25
2023-03-29T05:21:46.414Z,96640.78
2023-03-29T05:24:17.846Z,96640.86
2023-03-29T05:26:57.079Z,96641.88
2023-03-29T05:29:25.664Z,96641.98
2023-03-29T05:31:59.848Z,96641.17
2023-03-29T05:34:29.792Z,96639.44
2023-03-29T05:36:59.533Z,96642.76
2023-03-29T05:39:29.243Z,96644.52
2023-03-29T05:41:57.403Z,96642.36
2023-03-29T05:44:29.517Z,96643.19
2023-03-29T05:47:03.356Z,96645.39
2023-03-29T05:49:31.997Z,96644.23
2023-03-29T05:52:07.615Z,96642.50
2023-03-29T05:54:36.261Z,96643.92
2023-03-29T05:57:06.320Z,96644.35
2023-03-29T05:59:34.640Z,96646.27
2023-03-29T06:02:05.219Z,96649.11
2023-03-29T06:04:34.089Z,96648.83
2023-03-29T06:07:25.635Z,96647.63
2023-03-29T06:10:12.500Z,96646.30
2023-03-29T06:12:42.252Z,96642.97
2023-03-29T06:15:10.879Z,96645.50
2023-03-29T06:17:48.213Z,96640.51
2023-03-29T06:20:17.608Z,96638.41
2023-03-29T06:22:50.071Z,96637.22
2023-03-29T06:25:19.660Z,96640.45
2023-03-29T06:27:49.083Z,96636.31
2023-03-29T06:30:19.071Z,96640.65
2023-03-29T06:32:50.659Z,96639.18
2023-03-29T06:35:54.229Z,96643.57
2023-03-29T06:38:28.602Z,96647.42
2023-03-29T06:41:07.855Z,96650.84
2023-03-29T06:43:59.024Z,96652.73
2023-03-29T06:46:33.346Z,96652.70
2023-03-29T06:49:03.392Z,96655.67
2023-03-29T06:51:36.797Z,96655.59
2023-03-29T06:54:05.624Z,96655.39
2023-03-29T06:56:34.325Z,96654.71
2023-03-29T06:59:05.435Z,96653.84
2023-03-29T07:01:38.916Z,96656.45
2023-03-29T07:04:32.357Z,96656.88
2023-03-29T07:07:20.757Z,96657.66
2023-03-29T07:09:55.729Z,96657.19
2023-03-29T07:12:27.595Z,96660.97
2023-03-29T07:14:59.218Z,96662.45
2023-03-29T07:17:41.085Z,96658.68
2023-03-29T07:20:13.778Z,96660.02
2023-03-29T07:22:58.888Z,96660.38
2023-03-29T07:25:27.924Z,96663.10
2023-03-29T07:27:56.086Z,96661.85
2023-03-29T07:30:32.026Z,96661.24
2023-03-29T07:33:12.585Z,96662.34
2023-03-29T07:35:52.805Z,96658.86
2023-03-29T07:38:21.226Z,96655.23
2023-03-29T07:40:54.574Z,96657.15
2023-03-29T07:43:42.427Z,96655.46
2023-03-29T07:46:11.518Z,96656.04
2023-03-29T07:48:40.131Z,96659.25
2023-03-29T07:51:10.799Z,96660.95
2023-03-29T07:54:06.503Z,96660.75
2023-03-29T07:56:38.287Z,96658.80
2023-03-29T07:59:16.684Z,96657.23
2023-03-29T08:01:46.833Z,96658.12
2023-03-29T08:04:36.701Z,96658.48
2023-03-29T08:07:31.355Z,96655.88
2023-03-29T08:10:05.670Z,96657.48
2023-03-29T08:12:52.327Z,96656.00
2023-03-29T08:15:22.032Z,96657.06
2023-03-29T08:17:51.494Z,96656.10
2023-03-29T08:20:20.039Z,96651.62
2023-03-29T08:22:49.535Z,96648.80
2023-03-29T08:25:36.823Z,96644.86
2023-03-29T08:28:05.237Z,96645.38
2023-03-29T08:30:42.526Z,96647.48
2023-03-29T08:33:10.614Z,96642.14
2023-03-29T08:35:38.707Z,96644.38
2023-03-29T08:38:21.868Z,96641.31
2023-03-29T08:40:52.065Z,96641.38
2023-03-29T08:43:58.252Z,96644.15
2023-03-29T08:47:15.915Z,96638.23
2023-03-29T08:49:50.591Z,96634.23
2023-03-29T08:52:42.995Z,96640.99
2023-03-29T08:55:33.648Z,96635.31
2023-03-29T09:09:33.869Z,96622.23
2023-03-29T09:12:44.037Z,96622.77
2023-03-29T09:15:25.136Z,96623.67
2023-03-29T09:18:31.115Z,96622.48
2023-03-29T09:21:03.375Z,96620.37
2023-03-29T09:23:44.597Z,96616.60
2023-03-29T09:26:32.830Z,96617.97
2023-03-29T09:29:41.200Z,96614.14
2023-03-29T09:32:22.550Z,96611.98
2023-03-29T09:35:18.814Z,96611.82
2023-03-29T09:37:50.554Z,96608.19
2023-03-29T09:40:59.176Z,96602.75
2023-03-29T09:43:41.510Z,96600.19
2023-03-29T09:46:21.775Z,96599.95
2023-03-29T09:48:50.838Z,96604.59
2023-03-29T09:51:22.728Z,96603.28
2023-03-29T09:53:50.737Z,96596.77
2023-03-29T09:56:52.745Z,96598.95
2023-03-29T09:59:22.183Z,96596.23
2023-03-29T10:01:50.347Z,96597.80
2023-03-29T10:04:18.914Z,96596.39
2023-03-29T10:06:52.682Z,96596.67
2023-03-29T10:09:24.161Z,96591.86
2023-03-29T10:11:57.960Z,96588.65
2023-03-29T10:14:37.111Z,96585.59
2023-03-29T10:17:21.889Z,96586.55
2023-03-29T10:19:57.122Z,96581.57
2023-03-29T10:22:37.982Z,96582.89
2023-03-29T10:25:14.066Z,96583.02
2023-03-29T10:27:44.212Z,96575.89
2023-03-29T10:30:21.446Z,96578.13
2023-03-29T10:32:56.944Z,96579.96
2023-03-29T10:35:30.122Z,96579.66
2023-03-29T10:37:59.388Z,96578.02
2023-03-29T10:40:29.458Z,96580.11
2023-03-29T10:43:26.348Z,96577.98
2023-03-29T10:45:56.903Z,96574.50
2023-03-29T10:48:31.106Z,96573.44
2023-03-29T10:51:05.849Z,96572.14
2023-03-29T10:53:36.358Z,96568.20
2023-03-29T10:56:13.909Z,96567.80
2023-03-29T10:59:11.024Z,96567.38
2023-03-29T11:01:44.709Z,96561.05
2023-03-29T11:04:34.611Z,96558.65
2023-03-29T11:07:22.778Z,96557.23
2023-03-29T11:10:14.705Z,96554.20
2023-03-29T11:13:01.020Z,96555.77
2023-03-29T11:18:02.413Z,96547.50
2023-03-29T11:20:54.786Z,96545.98
2023-03-29T11:23:44.006Z,96542.45
2023-03-29T11:26:53.577Z,96544.31
2023-03-29T11:29:28.678Z,96537.52
2023-03-29T11:32:42.841Z,96532.16
2023-03-29T11:35:23.301Z,96532.22
2023-03-29T11:38:05.519Z,96531.70
2023-03-29T11:41:01.695Z,96527.61
2023-03-29T11:43:36.046Z,96527.55
2023-03-29T11:46:41.941Z,96519.56
2023-03-29T11:49:20.142Z,96520.55
2023-03-29T11:52:06.183Z,96516.98
2023-03-29T11:55:09.129Z,96501.23
2023-03-29T11:57:46.452Z,96502.67
2023-03-29T12:00:30.491Z,96503.14
2023-03-29T12:03:07.226Z,96499.66
2023-03-29T12:05:43.373Z,96499.17
2023-03-29T12:08:18.864Z,96493.80
2023-03-29T12:11:07.452Z,96499.60
2023-03-29T12:13:44.839Z,96492.73
2023-03-29T12:16:23.064Z,96489.33
2023-03-29T12:18:56.452Z,96486.98
2023-03-29T12:21:28.512Z,96483.25
2023-03-29T12:23:58.183Z,96485.01
2023-03-29T12:26:51.074Z,96481.79
2023-03-29T12:29:43.848Z,96482.23
2023-03-29T12:32:30.596Z,96484.61
2023-03-29T12:35:25.945Z,96480.16
2023-03-29T12:38:19.364Z,96469.96
2023-03-29T12:41:19.258Z,96469.52
2023-03-29T12:44:07.834Z,96472.56
2023-03-29T12:46:44.268Z,96470.50
2023-03-29T12:49:26.587Z,96466.17
2023-03-29T12:51:57.922Z,96462.39
2023-03-29T12:54:34.001Z,96461.08
2023-03-29T12:57:26.412Z,96460.17
2023-03-29T12:59:55.117Z,96458.48
2023-03-29T13:02:23.114Z,96456.86
2023-03-29T13:04:58.168Z,96451.70
2023-03-29T13:07:29.064Z,96448.59
2023-03-29T13:10:25.386Z,96451.59
2023-03-29T13:12:54.617Z,96445.46
2023-03-29T13:15:25.329Z,96443.15
2023-03-29T13:18:15.222Z,96443.84
2023-03-29T13:20:53.878Z,96441.17
2023-03-29T13:23:54.984Z,96439.80
2023-03-29T13:26:54.016Z,96437.88
2023-03-29T13:29:40.038Z,96435.23
2023-03-29T13:32:30.505Z,96429.38
2023-03-29T13:36:03.622Z,96431.85
2023-03-29T13:38:32.177Z,96425.66
2023-03-29T13:41:07.436Z,96426.02
2023-03-29T13:43:49.896Z,96423.26
2023-03-29T13:46:40.283Z,96417.42
2023-03-29T13:49:24.650Z,96416.19
2023-03-29T13:52:16.365Z,96408.40
2023-03-29T13:54:47.516Z,96406.42
2023-03-29T13:57:32.413Z,96406.52
2023-03-29T14:00:13.625Z,96400.23
2023-03-29T14:02:48.084Z,96395.12
2023-03-29T14:05:21.734Z,96393.41
2023-03-29T14:07:53.439Z,96393.33
2023-03-29T14:10:35.543Z,96393.71
2023-03-29T14:13:04.654Z,96391.14
2023-03-29T14:15:50.961Z,96389.80
2023-03-29T14:18:23.255Z,96388.97
2023-03-29T14:20:55.101Z,96395.23
2023-03-29T14:23:26.125Z,96396.04
2023-03-29T14:25:54.040Z,96391.87
2023-03-29T14:28:25.086Z,96393.16
2023-03-29T14:30:53.622Z,96392.20
2023-03-29T14:33:34.631Z,96395.29
2023-03-29T14:36:04.378Z,96400.19
2023-03-29T14:38:32.877Z,96396.71
2023-03-29T14:41:03.172Z,96399.13
2023-03-29T14:43:32.200Z,96402.31
2023-03-29T14:46:04.745Z,96401.59
2023-03-29T14:48:34.913Z,96403.40
2023-03-29T14:51:04.080Z,96405.33
2023-03-29T14:53:34.499Z,96404.93
2023-03-29T14:56:03.532Z,96399.89
2023-03-29T14:58:34.416Z,96397.27
2023-03-29T15:01:22.948Z,96395.13
2023-03-29T15:04:02.228Z,96389.85
2023-03-29T15:06:31.636Z,96390.27
2023-03-29T15:09:06.556Z,96390.27
2023-03-29T15:11:35.940Z,96387.73
2023-03-29T15:14:12.624Z,96383.36
2023-03-29T15:16:43.484Z,96386.56
2023-03-29T15:19:17.955Z,96381.28
2023-03-29T15:21:49.227Z,96380.07
2023-03-29T15:24:28.070Z,96377.75
2023-03-29T15:27:05.544Z,96372.81
2023-03-29T15:29:41.751Z,96374.20
2023-03-29T15:32:11.617Z,96366.33
2023-03-29T15:34:39.750Z,96365.17
2023-03-29T15:37:12.358Z,96362.45
2023-03-29T15:39:44.533Z,96358.72
2023-03-29T15:42:12.684Z,96361.36
2023-03-29T15:44:41.240Z,96359.72
2023-03-29T15:47:11.006Z,96354.22
2023-03-29T15:49:39.644Z,96351.16
2023-03-29T15:52:07.573Z,96352.51
2023-03-29T15:54:37.294Z,96349.96
2023-03-29T15:57:07.726Z,96351.09
2023-03-29T16:08:36.520Z,96346.66
2023-03-29T16:11:06.856Z,96343.81
2023-03-29T16:13:35.573Z,96345.48
2023-03-29T16:16:03.959Z,96343.60
2023-03-29T16:18:32.192Z,96341.11
2023-03-29T16:21:01.492Z,96341.10
2023-03-29T16:23:29.405Z,96343.88
2023-03-29T16:25:59.289Z,96345.70
2023-03-29T16:28:28.361Z,96342.50
2023-03-29T16:30:56.365Z,96345.06
2023-03-29T16:33:24.362Z,96344.70
2023-03-29T16:35:52.421Z,96340.19
2023-03-29T16:38:21.797Z,96340.73
2023-03-29T16:40:50.930Z,96336.91
2023-03-29T16:43:19.014Z,96338.51
2023-03-29T16:45:47.003Z,96337.39
2023-03-29T16:48:18.070Z,96337.88
2023-03-29T16:50:50.892Z,96334.02
2023-03-29T16:53:20.004Z,96332.26
2023-03-29T16:55:48.404Z,96331.52
2023-03-29T16:58:17.172Z,96333.48
2023-03-29T17:00:48.147Z,96332.39
2023-03-29T17:03:17.031Z,96333.97
2023-03-29T17:05:52.114Z,96332.97
2023-03-29T17:08:21.530Z,96334.75
2023-03-29T17:10:54.241Z,96333.34
2023-03-29T17:13:24.062Z,96335.89
2023-03-29T17:15:54.133Z,96338.35
2023-03-29T17:18:24.658Z,96334.77
2023-03-29T17:20:56.726Z,96335.02
2023-03-29T17:23:25.700Z,96339.05
2023-03-29T17:25:57.220Z,96338.17
2023-03-29T17:28:25.273Z,96345.09
2023-03-29T17:30:53.286Z,96351.10
2023-03-29T17:33:22.800Z,96353.69
2023-03-29T17:35:51.477Z,96355.30
2023-03-29T17:38:19.722Z,96357.69
2023-03-29T17:40:53.087Z,96361.98
2023-03-29T17:43:21.596Z,96356.98
2023-03-29T17:45:53.060Z,96353.70
2023-03-29T17:48:21.643Z,96353.73
2023-03-29T17:50:49.880Z,96351.98
2023-03-29T17:53:37.508Z,96351.90
2023-03-29T17:56:07.101Z,96354.44
2023-03-29T17:58:35.710Z,96356.25
2023-03-29T18:01:10.963Z,96354.43
2023-03-29T18:03:39.472Z,96356.15
2023-03-29T18:06:08.780Z,96360.76
2023-03-29T18:08:36.761Z,96362.24
2023-03-29T18:11:11.896Z,96363.10
2023-03-29T18:13:40.033Z,96365.19
2023-03-29T18:16:09.333Z,96365.17
2023-03-29T18:18:38.582Z,96364.34
2023-03-29T18:21:10.151Z,96368.23
2023-03-29T18:23:40.011Z,96368.38
2023-03-29T18:26:09.497Z,96374.52
2023-03-29T18:28:37.666Z,96374.82
2023-03-29T18:31:08.703Z,96376.41
2023-03-29T18:33:36.703Z,96373.55
2023-03-29T18:36:10.843Z,96375.38
2023-03-29T18:38:43.403Z,96373.17
2023-03-29T18:41:13.946Z,96374.55
2023-03-29T18:43:43.283Z,96374.94
2023-03-29T18:46:11.629Z,96370.91
2023-03-29T18:48:40.959Z,96370.42
2023-03-29T18:51:11.985Z,96368.26
2023-03-29T18:53:43.040Z,96375.48
2023-03-29T18:56:11.443Z,96371.05
2023-03-29T18:58:39.826Z,96362.08
2023-03-29T19:01:08.166Z,96357.42
2023-03-29T19:03:37.035Z,96357.23
2023-03-29T19:06:06.212Z,96359.91
2023-03-29T19:08:37.521Z,96358.76
2023-03-29T19:11:08.685Z,96355.42
2023-03-29T19:13:36.949Z,96360.71
2023-03-29T19:16:05.502Z,96359.77
2023-03-29T19:18:33.880Z,96357.17
2023-03-29T19:21:02.549Z,96354.77
2023-03-29T19:23:30.756Z,96353.97
2023-03-29T19:26:02.753Z,96360.08
2023-03-29T19:28:32.606Z,96358.36
2023-03-29T19:31:02.159Z,96355.66
2023-03-29T19:33:30.556Z,96352.35
2023-03-29T19:35:58.666Z,96352.13
2023-03-29T19:38:26.689Z,96351.14
2023-03-29T19:40:54.721Z,96361.74
2023-03-29T19:43:24.917Z,96354.36
2023-03-29T19:45:52.903Z,96351.15
2023-03-29T19:48:23.471Z,96356.17
2023-03-29T19:50:52.244Z,96360.25
2023-03-29T19:53:20.215Z,96359.92
2023-03-29T19:55:49.430Z,96357.34
2023-03-29T19:58:17.483Z,96358.88
2023-03-29T20:00:45.831Z,96360.77
2023-03-29T20:03:15.738Z,96363.02
2023-03-29T20:05:43.932Z,96355.90
2023-03-29T20:08:12.107Z,96354.57
2023-03-29T20:10:40.270Z,96358.85
2023-03-29T20:13:08.303Z,96355.27
2023-03-29T20:15:36.421Z,96351.08
2023-03-29T20:18:06.524Z,96349.55
2023-03-29T20:20:38.405Z,96349.57
2023-03-29T20:23:06.485Z,96356.84
2023-03-29T20:25:37.470Z,96354.88
2023-03-29T20:28:06.587Z,96355.45
2023-03-29T20:30:37.631Z,96347.73
2023-03-29T20:33:07.410Z,96342.01
2023-03-29T20:35:35.524Z,96337.03
2023-03-29T20:38:03.714Z,96330.57
2023-03-29T20:40:31.741Z,96321.89
2023-03-29T20:42:59.651Z,96328.84
2023-03-29T20:45:27.697Z,96331.40
2023-03-29T20:48:02.163Z,96328.14
2023-03-29T20:50:30.282Z,96325.58
2023-03-29T20:53:02.377Z,96322.70
2023-03-29T20:55:33.311Z,96316.88
2023-03-29T20:58:02.391Z,96322.35
2023-03-29T21:00:32.769Z,96318.75
2023-03-29T21:03:03.742Z,96319.04
2023-03-29T21:05:33.301Z,96316.77
2023-03-29T21:08:02.515Z,96315.61
2023-03-29T21:10:30.963Z,96309.85
2023-03-29T21:13:02.611Z,96307.86
2023-03-29T21:15:31.981Z,96310.09
2023-03-29T21:18:00.152Z,96311.95
2023-03-29T21:20:28.227Z,96305.84
2023-03-29T21:22:56.264Z,96301.61
2023-03-29T21:25:24.258Z,96301.84
2023-03-29T21:27:52.268Z,96301.85
2023-03-29T21:30:20.182Z,96300.09
2023-03-29T21:32:48.282Z,96297.80
2023-03-29T21:35:16.629Z,96298.52
2023-03-29T21:37:45.015Z,96296.45
2023-03-29T21:40:13.416Z,96300.39
2023-03-29T21:42:41.382Z,96305.27
2023-03-29T21:45:11.418Z,96314.67
2023-03-29T21:47:39.488Z,96310.75
2023-03-29T21:50:07.735Z,96311.67
2023-03-29T21:52:37.790Z,96307.47
2023-03-29T21:55:06.746Z,96301.20
2023-03-29T21:57:34.668Z,96302.06
2023-03-29T22:00:03.689Z,96305.57
2023-03-29T22:02:38.726Z,96301.05
2023-03-29T22:05:13.941Z,96298.29
2023-03-29T22:07:42.095Z,96296.94
2023-03-29T22:10:13.243Z,96295.86
2023-03-29T22:12:41.432Z,96294.38
2023-03-29T22:15:13.202Z,96295.41
2023-03-29T22:17:43.107Z,96296.36
2023-03-29T22:20:14.968Z,96292.99
2023-03-29T22:22:49.839Z,96298.36
2023-03-29T22:25:19.414Z,96293.86
2023-03-29T22:27:48.096Z,96294.41
2023-03-29T22:30:17.394Z,96292.98
2023-03-29T22:32:45.509Z,96296.81
2023-03-29T22:35:13.597Z,96296.24
2023-03-29T22:37:43.428Z,96292.08
2023-03-29T22:40:12.486Z,96290.70
2023-03-29T22:42:40.680Z,96287.27
2023-03-29T22:45:09.255Z,96278.05
2023-03-29T22:47:41.609Z,96275.59
2023-03-29T22:50:10.317Z,96274.21
2023-03-29T22:52:38.269Z,96270.09
2023-03-29T22:55:06.744Z,96272.09
2023-03-29T22:57:34.782Z,96264.66
2023-03-29T23:00:06.958Z,96260.50
2023-03-29T23:02:34.954Z,96259.98
2023-03-29T23:05:03.036Z,96256.15
2023-03-29T23:07:31.030Z,96252.39
2023-03-29T23:09:59.123Z,96257.21
2023-03-29T23:12:27.140Z,96258.27
2023-03-29T23:14:55.996Z,96259.63
2023-03-29T23:17:24.022Z,96249.52
2023-03-29T23:19:52.101Z,96247.31
2023-03-29T23:22:20.014Z,96242.52
2023-03-29T23:24:48.146Z,96240.05
2023-03-29T23:27:16.480Z,96241.01
2023-03-29T23:29:45.692Z,96239.55
2023-03-29T23:32:15.751Z,96235.75
2023-03-29T23:34:44.599Z,96232.12
2023-03-29T23:37:12.604Z,96233.60
2023-03-29T23:39:40.651Z,96231.02
2023-03-29T23:42:08.584Z,96230.09
2023-03-29T23:44:37.783Z,96224.48
2023-03-29T23:47:06.286Z,96223.27
2023-03-29T23:49:34.391Z,96221.60
2023-03-29T23:52:02.720Z,96219.80
2023-03-29T23:54:31.893Z,96219.34
2023-03-29T23:57:00.339Z,96215.70
2023-03-29T23:59:30.735Z,96208.39
